Time;durP1;ratioP1;P1;durP2;ratioP2;P2;SDS_P1;SDS_P2;PMS_P1;PMS_P2;Temp;Humidity;BMP_temperature;BMP_pressure;BME280_temperature;BME280_humidity;BME280_pressure;Samples;Min_cycle;Max_cycle;Signal;HPM_P1;HPM_P2
2022/07/04 00:00:58;;;;;;;8.63;5.60;;;;;;;17.35;100.00;99848.89;1714835;82;21581;-63
2022/07/04 00:03:24;;;;;;;8.23;5.85;;;;;;;17.34;100.00;99848.08;1730044;82;21110;-60
2022/07/04 00:05:51;;;;;;;8.38;6.20;;;;;;;17.37;100.00;99844.70;1713676;82;21019;-62
2022/07/04 00:08:18;;;;;;;8.83;6.75;;;;;;;17.38;100.00;99851.02;1694810;84;21134;-60
2022/07/04 00:10:46;;;;;;;8.48;6.70;;;;;;;17.36;100.00;99852.69;1704659;83;20997;-63
2022/07/04 00:13:13;;;;;;;10.08;6.15;;;;;;;17.31;100.00;99852.84;1710771;82;21034;-62
2022/07/04 00:15:40;;;;;;;7.62;6.22;;;;;;;17.25;100.00;99847.78;1713641;83;21051;-62
2022/07/04 00:18:07;;;;;;;7.95;6.10;;;;;;;17.18;100.00;99854.28;1696613;82;21426;-62
2022/07/04 00:20:35;;;;;;;7.85;6.03;;;;;;;17.12;100.00;99855.51;1713642;83;21555;-63
2022/07/04 00:23:01;;;;;;;8.38;6.50;;;;;;;17.13;100.00;99855.20;1711131;82;21059;-62
2022/07/04 00:25:28;;;;;;;8.35;6.87;;;;;;;17.11;100.00;99859.41;1710370;82;21055;-62
2022/07/04 00:28:50;;;;;;;10.55;6.70;;;;;;;17.18;100.00;99863.31;1786887;78;22907;-62
2022/07/04 00:31:17;;;;;;;8.65;6.67;;;;;;;17.08;100.00;99870.45;1747249;82;21576;-62
2022/07/04 00:33:43;;;;;;;12.70;7.25;;;;;;;17.02;100.00;99873.63;1729459;81;21127;-62
2022/07/04 00:36:10;;;;;;;;;;;;;;;16.98;100.00;99866.56;1729794;81;21055;-62
2022/07/04 00:38:36;;;;;;;10.63;6.80;;;;;;;16.99;100.00;99864.07;1722914;80;20143;-63
2022/07/04 00:41:03;;;;;;;8.78;6.42;;;;;;;16.90;100.00;99860.42;1726453;82;21499;-62
2022/07/04 00:43:30;;;;;;;11.35;7.03;;;;;;;16.86;100.00;99856.10;1737808;81;21614;-62
2022/07/04 00:45:56;;;;;;;8.08;6.60;;;;;;;16.81;100.00;99863.11;1722653;81;20947;-62
2022/07/04 00:48:23;;;;;;;10.78;6.55;;;;;;;16.78;100.00;99862.91;1726638;81;21078;-63
2022/07/04 00:50:49;;;;;;;9.63;6.80;;;;;;;16.77;100.00;99863.47;1736095;82;20979;-63
2022/07/04 00:53:17;;;;;;;8.68;6.50;;;;;;;16.77;100.00;99864.03;1732580;81;21062;-62
2022/07/04 00:55:44;;;;;;;9.03;6.85;;;;;;;16.75;100.00;99862.98;1727059;81;20991;-63
2022/07/04 00:58:10;;;;;;;9.28;6.40;;;;;;;16.75;100.00;99864.91;1737241;81;21010;-62
2022/07/04 01:00:37;;;;;;;9.45;7.08;;;;;;;16.73;100.00;99872.08;1735700;81;21031;-62
2022/07/04 01:03:03;;;;;;;9.10;6.80;;;;;;;16.70;100.00;99878.76;1727881;82;21129;-62
2022/07/04 01:05:30;;;;;;;9.88;6.87;;;;;;;16.70;100.00;99869.95;1734475;81;20975;-62
2022/07/04 01:07:57;;;;;;;10.40;7.33;;;;;;;16.71;100.00;99881.77;1728061;81;21014;-62
2022/07/04 01:10:24;;;;;;;10.05;6.97;;;;;;;16.71;100.00;99881.77;1708196;83;20989;-62
2022/07/04 01:12:50;;;;;;;9.48;6.95;;;;;;;16.70;100.00;99880.13;1722391;81;21030;-62
2022/07/04 01:15:17;;;;;;;10.05;6.70;;;;;;;16.62;100.00;99874.80;1731729;81;20983;-62
2022/07/04 01:17:43;;;;;;;9.95;7.15;;;;;;;16.63;100.00;99875.61;1733801;80;21026;-62
2022/07/04 01:20:14;;;;;;;11.60;6.95;;;;;;;16.60;100.00;99877.05;1731945;81;21483;-62
2022/07/04 01:22:41;;;;;;;8.98;7.03;;;;;;;16.57;100.00;99876.86;1729199;81;21058;-62
2022/07/04 01:25:10;;;;;;;10.80;7.03;;;;;;;16.48;100.00;99869.84;1696175;83;21014;-62
2022/07/04 01:27:37;;;;;;;10.20;6.92;;;;;;;16.40;100.00;99871.37;1672955;83;21034;-62
2022/07/04 01:30:05;;;;;;;12.33;7.08;;;;;;;16.36;100.00;99869.58;1729002;82;21003;-62
2022/07/04 01:32:32;;;;;;;8.40;6.65;;;;;;;16.36;100.00;99870.39;1693214;82;21034;-62
2022/07/04 01:34:58;;;;;;;8.03;6.83;;;;;;;16.33;100.00;99869.61;1713341;82;21047;-62
2022/07/04 01:37:25;;;;;;;9.58;7.12;;;;;;;16.33;100.00;99866.86;1671161;84;21019;-62
2022/07/04 01:39:51;;;;;;;;;;;;;;;16.35;100.00;99867.39;1718169;82;21515;-62
2022/07/04 01:42:17;;;;;;;10.15;6.92;;;;;;;16.35;100.00;99872.88;1711175;82;20111;-62
2022/07/04 01:44:44;;;;;;;9.93;7.30;;;;;;;16.27;100.00;99861.78;1674728;84;21561;-62
2022/07/04 01:47:10;;;;;;;;;;;;;;;16.18;100.00;99865.00;1719257;82;21063;-62
2022/07/04 01:49:36;;;;;;;9.15;6.80;;;;;;;16.16;100.00;99866.67;1716603;81;20120;-62
2022/07/04 01:52:05;;;;;;;9.50;7.45;;;;;;;16.10;100.00;99863.78;1713843;82;21317;-61
2022/07/04 01:54:31;;;;;;;11.10;7.70;;;;;;;16.07;100.00;99868.52;1713928;82;21007;-62
2022/07/04 01:56:57;;;;;;;;;;;;;;;16.02;100.00;99875.46;1676418;85;20984;-61
2022/07/04 02:01:29;;;;;;;9.55;7.50;;;;;;;15.98;100.00;99868.16;1673960;84;20108;-61
2022/07/04 02:01:53;;;;;;;9.65;7.12;;;;;;;15.97;100.00;99872.83;1719082;82;21501;-61
2022/07/04 02:04:19;;;;;;;12.65;7.55;;;;;;;16.02;100.00;99875.46;1713797;82;21056;-62
2022/07/04 02:06:46;;;;;;;11.40;7.92;;;;;;;16.02;100.00;99868.59;1718811;82;21452;-62
2022/07/04 02:09:15;;;;;;;10.93;7.80;;;;;;;16.09;100.00;99873.13;1718866;82;21081;-61
2022/07/04 02:14:30;;;;;;;9.85;7.78;;;;;;;16.15;100.00;99871.11;1714706;82;21090;-61
2022/07/04 02:16:57;;;;;;;10.58;7.67;;;;;;;16.13;100.00;99865.09;1717481;82;21452;-62
2022/07/04 02:19:23;;;;;;;11.80;7.58;;;;;;;16.13;100.00;99862.34;1715625;82;21039;-62
2022/07/04 02:21:50;;;;;;;;;;;;;;;16.13;100.00;99862.34;1719906;82;20995;-62
2022/07/04 02:24:16;;;;;;;10.20;7.58;;;;;;;16.15;100.00;99869.18;1715334;82;20407;-61
2022/07/04 02:26:43;;;;;;;13.15;7.92;;;;;;;16.12;100.00;99871.14;1716163;82;21011;-62
2022/07/04 02:29:10;;;;;;;10.70;7.60;;;;;;;16.11;100.00;99868.71;1713745;82;21011;-62
2022/07/04 02:31:37;;;;;;;10.13;7.28;;;;;;;16.08;100.00;99866.58;1718244;82;21008;-62
2022/07/04 02:34:03;;;;;;;10.40;7.25;;;;;;;16.09;100.00;99864.89;1681386;83;21071;-62
2022/07/04 02:36:31;;;;;;;9.63;6.50;;;;;;;16.19;100.00;99871.55;1677384;83;21010;-62
2022/07/04 02:38:58;;;;;;;9.70;6.65;;;;;;;16.28;100.00;99875.22;1717630;82;21075;-61
2022/07/04 02:41:24;;;;;;;10.03;7.58;;;;;;;16.37;100.00;99881.61;1718757;82;20998;-62
2022/07/04 02:43:51;;;;;;;9.80;7.08;;;;;;;16.47;100.00;99878.42;1713765;82;21138;-62
2022/07/04 02:46:18;;;;;;;11.35;6.87;;;;;;;16.54;100.00;99875.52;1675354;83;21047;-62
2022/07/04 02:48:45;;;;;;;10.45;6.85;;;;;;;16.62;100.00;99882.22;1657848;85;21036;-61
2022/07/04 02:51:11;;;;;;;7.75;6.67;;;;;;;16.72;100.00;99882.81;1712392;82;21051;-62
2022/07/04 02:53:39;;;;;;;11.80;6.78;;;;;;;16.81;100.00;99891.98;1707066;82;21058;-62
2022/07/04 02:56:05;;;;;;;9.80;7.00;;;;;;;16.88;100.00;99888.80;1715347;82;21412;-62
2022/07/04 02:58:32;;;;;;;7.58;6.72;;;;;;;16.90;100.00;99883.23;1711736;82;21050;-62
2022/07/04 03:00:59;;;;;;;8.60;6.72;;;;;;;16.95;100.00;99888.38;1712747;82;21023;-62
2022/07/04 03:03:25;;;;;;;10.03;7.17;;;;;;;17.00;100.00;99878.64;1712782;82;21074;-62
2022/07/04 03:05:53;;;;;;;12.35;7.50;;;;;;;17.05;100.00;99879.87;1724265;82;21447;-62
2022/07/04 03:08:20;;;;;;;10.50;6.78;;;;;;;17.11;100.00;99884.16;1708703;82;21035;-63
2022/07/04 03:10:49;;;;;;;14.85;7.30;;;;;;;17.15;100.00;99884.58;1718125;82;21005;-62
2022/07/04 03:13:15;;;;;;;9.80;6.80;;;;;;;17.22;100.00;99882.20;1706606;82;21927;-62
2022/07/04 03:15:42;;;;;;;9.30;7.00;;;;;;;17.30;100.00;99879.27;1700589;82;21437;-62
2022/07/04 03:18:09;;;;;;;8.55;6.70;;;;;;;17.46;100.00;99880.54;1712881;82;21369;-61
2022/07/04 03:20:35;;;;;;;12.18;7.67;;;;;;;17.74;100.00;99889.48;1714083;82;21519;-62
2022/07/04 03:23:03;;;;;;;9.45;6.62;;;;;;;18.03;100.00;99883.48;1712715;82;21091;-62
2022/07/04 03:25:30;;;;;;;11.45;7.42;;;;;;;18.25;100.00;99880.63;1716280;82;21004;-62
2022/07/04 03:27:58;;;;;;;10.95;7.30;;;;;;;18.54;100.00;99885.05;1720292;81;21097;-62
2022/07/04 03:30:25;;;;;;;11.03;6.95;;;;;;;18.93;100.00;99891.05;1730177;81;20979;-62
2022/07/04 03:32:52;;;;;;;13.53;7.75;;;;;;;19.36;100.00;99881.39;1715226;83;21506;-61
2022/07/04 03:35:19;;;;;;;13.83;8.25;;;;;;;19.75;100.00;99870.14;1727409;82;20975;-62
2022/07/04 03:37:45;;;;;;;14.63;9.05;;;;;;;19.97;100.00;99845.62;1729041;81;21640;-62
2022/07/04 03:40:12;;;;;;;11.75;8.23;;;;;;;20.19;100.00;99839.02;1708590;81;21030;-63
2022/07/04 03:42:39;;;;;;;12.55;9.40;;;;;;;20.41;100.00;99842.08;1724229;82;21072;-62
2022/07/04 03:45:07;;;;;;;12.88;9.50;;;;;;;20.68;100.00;99838.83;1698890;83;21062;-62
2022/07/04 03:47:35;;;;;;;13.35;8.98;;;;;;;20.96;100.00;99841.30;1665115;84;21030;-61
2022/07/04 03:50:04;;;;;;;12.88;8.70;;;;;;;21.33;100.00;99835.38;1662398;85;21474;-62
2022/07/04 03:52:31;;;;;;;10.60;7.75;;;;;;;21.73;100.00;99828.69;1677571;84;21060;-61
2022/07/04 03:54:58;;;;;;;11.05;8.58;;;;;;;21.99;100.00;99810.39;1677903;84;21099;-61
2022/07/04 03:57:25;;;;;;;12.53;8.05;;;;;;;22.13;100.00;99815.02;1670026;85;21413;-62
2022/07/04 03:59:51;;;;;;;13.20;7.83;;;;;;;22.30;100.00;99811.43;1673482;84;21091;-61
2022/07/04 04:02:18;;;;;;;10.88;7.90;;;;;;;22.56;100.00;99811.06;1679802;84;21078;-62
2022/07/04 04:07:30;;;;;;;9.68;7.30;;;;;;;23.11;100.00;99806.75;1678548;85;20997;-63
2022/07/04 04:09:57;;;;;;;12.90;8.58;;;;;;;23.35;100.00;99804.47;1679344;84;21060;-63
2022/07/04 04:12:23;;;;;;;11.48;8.40;;;;;;;23.68;100.00;99805.80;1681817;84;21521;-63
2022/07/04 04:14:50;;;;;;;10.23;8.23;;;;;;;24.10;100.00;99800.50;1681433;84;21512;-62
2022/07/04 04:17:17;;;;;;;10.78;8.23;;;;;;;24.48;100.00;99803.22;1692897;84;21439;-62
2022/07/04 04:19:44;;;;;;;9.45;7.03;;;;;;;24.72;100.00;99798.80;1669403;84;21524;-62
2022/07/04 04:22:10;;;;;;;8.18;6.83;;;;;;;24.91;100.00;99803.00;1672961;85;21364;-63
2022/07/04 04:24:37;;;;;;;7.47;6.30;;;;;;;25.05;100.00;99794.94;1664228;85;21068;-63
2022/07/04 04:27:04;;;;;;;7.72;5.78;;;;;;;25.12;100.00;99801.23;1669126;85;21030;-63
2022/07/04 04:29:31;;;;;;;9.58;5.90;;;;;;;25.23;100.00;99794.72;1667966;85;21538;-63
2022/07/04 04:31:58;;;;;;;8.53;6.05;;;;;;;25.42;100.00;99788.91;1691084;83;21033;-63
2022/07/04 04:34:25;;;;;;;8.75;5.65;;;;;;;25.60;100.00;99797.85;1704803;82;21553;-63
2022/07/04 04:36:52;;;;;;;8.63;5.53;;;;;;;25.83;100.00;99795.64;1691584;83;21007;-63
2022/07/04 04:39:18;;;;;;;8.50;5.35;;;;;;;26.13;100.00;99804.34;1692736;84;21056;-63
2022/07/04 04:41:45;;;;;;;8.25;4.97;;;;;;;26.35;100.00;99792.96;1692823;84;21066;-64
2022/07/04 04:44:11;;;;;;;9.10;4.90;;;;;;;26.52;100.00;99791.02;1692171;83;21130;-63
2022/07/04 04:46:39;;;;;;;6.45;4.37;;;;;;;26.69;100.00;99791.05;1662069;85;21014;-63
2022/07/04 04:49:05;;;;;;;17.57;4.55;;;;;;;26.74;100.00;99793.52;1693538;83;21072;-63
2022/07/04 04:51:32;;;;;;;6.58;4.67;;;;;;;26.79;100.00;99791.78;1695533;84;21031;-63
2022/07/04 04:53:58;;;;;;;6.53;4.22;;;;;;;26.83;100.00;99791.27;1686287;83;21121;-65
2022/07/04 04:56:25;;;;;;;7.95;4.40;;;;;;;26.95;100.00;99783.25;1692463;83;21017;-63
2022/07/04 04:58:52;;;;;;;8.63;4.15;;;;;;;27.17;100.00;99787.30;1695554;84;21121;-63
2022/07/04 05:01:18;;;;;;;7.00;4.30;;;;;;;27.45;100.00;99788.27;1692223;83;21039;-62
2022/07/04 05:03:45;;;;;;;5.97;3.40;;;;;;;27.66;100.00;99784.88;1669419;84;21162;-64
2022/07/04 05:06:12;;;;;;;5.90;3.30;;;;;;;27.99;100.00;99787.55;1676976;84;21031;-63
2022/07/04 05:08:39;;;;;;;3.33;2.83;;;;;;;28.29;100.00;99787.42;1681598;83;21053;-62
2022/07/04 05:11:05;;;;;;;5.20;2.77;;;;;;;28.40;100.00;99788.30;1663371;84;21058;-65
2022/07/04 05:13:32;;;;;;;4.30;2.70;;;;;;;28.53;100.00;99783.17;1686028;83;21707;-63
2022/07/04 05:15:59;;;;;;;4.47;2.50;;;;;;;28.69;100.00;99777.30;1711939;83;21023;-63
2022/07/04 05:18:25;;;;;;;4.83;2.55;;;;;;;28.90;100.00;99777.41;1650496;85;21110;-63
2022/07/04 05:20:52;;;;;;;4.50;2.12;;;;;;;29.15;100.00;99772.11;1671262;85;21422;-61
2022/07/04 05:23:19;;;;;;;3.30;1.90;;;;;;;29.39;100.00;99772.59;1685054;84;21082;-64
2022/07/04 05:25:45;;;;;;;3.70;2.27;;;;;;;29.57;95.99;99774.84;1684083;84;21605;-63
2022/07/04 05:28:12;;;;;;;3.75;1.87;;;;;;;29.69;100.00;99768.05;1670505;84;21046;-63
2022/07/04 05:30:38;;;;;;;3.62;2.00;;;;;;;29.87;100.00;99766.88;1641070;86;21024;-62
2022/07/04 05:33:05;;;;;;;3.80;2.10;;;;;;;30.10;86.50;99767.28;1634827;87;21036;-64
2022/07/04 05:35:32;;;;;;;2.40;1.92;;;;;;;30.26;83.42;99766.04;1676282;85;20999;-65
2022/07/04 05:37:59;;;;;;;2.90;1.90;;;;;;;30.40;91.93;99773.04;1696467;83;21156;-65
2022/07/04 05:40:25;;;;;;;3.50;1.75;;;;;;;30.55;77.16;99778.27;1686507;83;20979;-64
2022/07/04 05:42:53;;;;;;;2.80;1.50;;;;;;;30.53;79.50;99779.28;1683792;85;21522;-65
2022/07/04 05:45:20;;;;;;;4.70;1.90;;;;;;;30.68;85.07;99778.62;1684126;85;21013;-65
2022/07/04 05:47:47;;;;;;;1.85;1.52;;;;;;;30.93;72.03;99770.91;1680564;82;20957;-66
2022/07/04 05:50:13;;;;;;;2.83;1.60;;;;;;;31.09;66.35;99775.50;1691069;83;20983;-64
2022/07/04 05:52:40;;;;;;;4.62;1.60;;;;;;;31.37;61.56;99775.95;1683230;83;21007;-65
2022/07/04 05:55:09;;;;;;;2.75;1.47;;;;;;;31.55;59.32;99773.06;1684917;83;21054;-68
2022/07/04 05:57:36;;;;;;;3.12;1.67;;;;;;;31.74;64.97;99766.10;1686973;85;21746;-68
2022/07/04 06:00:05;;;;;;;2.42;1.50;;;;;;;32.09;62.16;99766.44;1706376;83;21079;-68
2022/07/04 06:02:32;;;;;;;2.75;2.00;;;;;;;32.27;60.04;99756.62;1696585;83;21017;-68
2022/07/04 06:04:58;;;;;;;3.15;1.85;;;;;;;32.29;56.60;99764.03;1692829;82;21051;-68
2022/07/04 06:07:25;;;;;;;3.00;1.90;;;;;;;32.04;54.17;99766.24;1687153;83;21059;-68
2022/07/04 06:09:53;;;;;;;5.00;2.10;;;;;;;31.92;57.23;99767.54;1693309;83;21040;-68
2022/07/04 06:12:20;;;;;;;4.60;1.98;;;;;;;32.17;57.47;99766.58;1690155;83;21054;-69
2022/07/04 06:14:47;;;;;;;4.35;1.75;;;;;;;32.48;50.98;99763.45;1684197;83;21088;-68
2022/07/04 06:17:14;;;;;;;2.90;1.98;;;;;;;32.54;50.76;99760.95;1687351;83;21051;-69
2022/07/04 06:19:41;;;;;;;5.00;2.20;;;;;;;32.53;47.74;99759.34;1692192;82;21083;-67
2022/07/04 06:22:07;;;;;;;4.10;1.80;;;;;;;32.40;48.48;99762.52;1681418;83;21039;-68
2022/07/04 06:24:34;;;;;;;5.37;2.02;;;;;;;32.40;51.08;99754.87;1686565;83;21098;-67
2022/07/04 06:27:03;;;;;;;3.45;2.25;;;;;;;32.13;51.13;99755.95;1677286;84;21054;-66
2022/07/04 06:29:29;;;;;;;5.25;2.30;;;;;;;32.09;46.95;99753.77;1697810;83;21069;-67
2022/07/04 06:31:56;;;;;;;3.33;2.15;;;;;;;32.10;47.86;99749.12;1701072;81;21014;-68
2022/07/04 06:37:07;;;;;;;3.55;2.33;;;;;;;32.35;48.59;99748.27;1731707;82;21006;-67
2022/07/04 06:39:34;;;;;;;3.42;2.02;;;;;;;32.47;48.00;99742.72;1725279;82;21110;-67
2022/07/04 06:42:02;;;;;;;3.72;2.17;;;;;;;32.73;45.63;99742.05;1728688;81;21353;-64
2022/07/04 06:44:28;;;;;;;4.00;2.10;;;;;;;32.86;43.20;99740.88;1723151;81;21633;-65
2022/07/04 06:46:55;;;;;;;5.72;2.37;;;;;;;32.87;45.06;99736.24;1727768;82;21827;-66
2022/07/04 06:49:22;;;;;;;4.80;2.75;;;;;;;32.84;44.12;99739.88;1725000;81;21043;-65
2022/07/04 06:51:48;;;;;;;5.22;2.30;;;;;;;32.93;42.66;99736.56;1706988;83;21591;-67
2022/07/04 06:54:15;;;;;;;5.42;2.40;;;;;;;32.95;44.60;99741.16;1747607;81;21090;-66
2022/07/04 06:56:42;;;;;;;3.17;2.02;;;;;;;33.08;43.13;99734.36;1731421;81;21018;-66
2022/07/04 06:59:08;;;;;;;3.05;2.42;;;;;;;33.15;43.24;99737.11;1722935;81;21061;-66
2022/07/04 07:01:35;;;;;;;4.00;2.30;;;;;;;33.02;41.81;99737.63;1724744;81;21086;-68
2022/07/04 07:04:02;;;;;;;3.72;1.90;;;;;;;32.75;45.88;99740.21;1713072;81;21125;-67
2022/07/04 07:06:29;;;;;;;3.15;1.90;;;;;;;32.77;50.61;99732.15;1716768;82;21062;-68
2022/07/04 07:08:57;;;;;;;4.97;2.17;;;;;;;33.12;48.52;99733.73;1728343;81;21539;-68
2022/07/04 07:11:25;;;;;;;4.00;2.47;;;;;;;33.43;44.56;99732.47;1725353;81;21042;-66
2022/07/04 07:13:52;;;;;;;3.20;2.20;;;;;;;33.70;45.04;99740.33;1715014;83;21046;-65
2022/07/04 07:16:20;;;;;;;3.30;2.30;;;;;;;33.92;45.10;99737.34;1727075;81;21046;-66
2022/07/04 07:18:48;;;;;;;3.25;2.20;;;;;;;33.97;43.93;99735.45;1728900;81;21101;-66
2022/07/04 07:21:15;;;;;;;5.85;2.30;;;;;;;34.04;42.80;99736.55;1692584;83;21124;-67
2022/07/04 07:23:41;;;;;;;4.33;2.00;;;;;;;34.06;41.47;99732.67;1668129;84;21083;-65
2022/07/04 07:26:08;;;;;;;4.22;2.35;;;;;;;34.34;40.94;99727.94;1662358;85;21060;-67
2022/07/04 07:28:35;;;;;;;4.67;2.10;;;;;;;34.45;41.85;99734.19;1667054;85;21075;-67
2022/07/04 07:31:02;;;;;;;4.20;2.20;;;;;;;34.59;42.88;99729.67;1656837;86;21037;-69
2022/07/04 07:33:29;;;;;;;3.80;1.90;;;;;;;34.86;41.32;99733.17;1666728;85;21547;-68
2022/07/04 07:36:02;;;;;;;4.58;2.00;;;;;;;35.02;42.93;99729.61;1685535;83;20980;-71
2022/07/04 07:38:31;;;;;;;3.83;2.00;;;;;;;35.22;41.22;99731.81;1674753;83;21094;-67
2022/07/04 07:40:58;;;;;;;3.30;2.10;;;;;;;35.31;39.67;99734.86;1712045;82;21047;-68
2022/07/04 07:43:24;;;;;;;4.60;2.08;;;;;;;35.15;39.27;99731.97;1705130;82;21011;-66
2022/07/04 07:45:51;;;;;;;4.67;1.90;;;;;;;34.84;40.26;99723.54;1709995;83;21073;-66
2022/07/04 07:48:18;;;;;;;3.35;1.80;;;;;;;34.66;40.79;99730.97;1712136;82;21031;-65
2022/07/04 07:50:45;;;;;;;4.12;1.82;;;;;;;34.83;38.63;99728.39;1712494;82;21074;-67
2022/07/04 07:53:11;;;;;;;2.12;1.57;;;;;;;34.98;36.76;99732.52;1712567;82;21025;-68
2022/07/04 07:55:38;;;;;;;5.90;1.80;;;;;;;35.06;37.15;99730.95;1708973;82;21601;-67
2022/07/04 07:58:06;;;;;;;6.03;1.90;;;;;;;35.29;35.80;99732.27;1714124;82;21538;-67
2022/07/04 08:00:33;;;;;;;2.92;1.60;;;;;;;35.60;34.14;99732.77;1676975;83;21038;-67
2022/07/04 08:05:46;;;;;;;6.87;2.25;;;;;;;35.45;35.22;99727.45;1709489;82;21069;-66
2022/07/04 08:08:13;;;;;;;4.45;2.22;;;;;;;35.62;32.68;99721.82;1708542;82;21095;-65
2022/07/04 08:10:39;;;;;;;2.10;1.50;;;;;;;35.54;31.80;99716.91;1729147;82;21007;-66
2022/07/04 08:13:06;;;;;;;4.12;1.87;;;;;;;35.47;32.86;99718.50;1710981;82;21106;-67
2022/07/04 08:15:33;;;;;;;2.62;1.62;;;;;;;35.60;34.85;99719.45;1714320;82;21083;-66
2022/07/04 08:18:01;;;;;;;3.62;1.80;;;;;;;35.79;32.20;99719.16;1711826;82;21048;-66
2022/07/04 08:20:27;;;;;;;3.17;1.80;;;;;;;35.88;33.08;99715.11;1709266;82;21023;-66
2022/07/04 08:22:56;;;;;;;3.65;1.80;;;;;;;35.92;33.22;99711.56;1710065;82;21066;-66
2022/07/04 08:25:24;;;;;;;4.10;1.67;;;;;;;35.96;31.58;99710.06;1658906;84;21019;-66
2022/07/04 08:27:51;;;;;;;3.87;1.92;;;;;;;35.69;32.20;99708.29;1667261;82;21019;-66
2022/07/04 08:30:18;;;;;;;3.67;2.05;;;;;;;35.45;33.31;99710.47;1708571;83;21073;-65
2022/07/04 08:32:44;;;;;;;3.25;1.75;;;;;;;35.36;33.84;99710.27;1705428;83;20958;-66
2022/07/04 08:35:11;;;;;;;4.22;1.80;;;;;;;35.21;35.21;99709.02;1702127;83;21101;-67
2022/07/04 08:37:40;;;;;;;3.50;1.67;;;;;;;35.29;33.83;99705.38;1709959;82;21065;-66
2022/07/04 08:40:07;;;;;;;2.83;1.65;;;;;;;35.55;34.33;99707.19;1705748;83;21465;-67
2022/07/04 08:42:38;;;;;;;5.72;1.70;;;;;;;35.62;33.93;99709.88;1661580;84;21478;-67
2022/07/04 08:45:07;;;;;;;3.02;1.60;;;;;;;35.69;32.11;99700.41;1707289;84;21038;-66
2022/07/04 08:47:35;;;;;;;3.25;1.70;;;;;;;35.62;33.95;99704.83;1688322;83;21014;-67
2022/07/04 08:50:25;;;;;;;3.22;1.87;;;;;;;35.58;34.46;99699.23;1663089;85;21119;-66
2022/07/04 08:52:54;;;;;;;2.67;1.50;;;;;;;35.68;32.46;99701.64;1722121;82;21003;-67
2022/07/04 09:00:54;;;;;;;5.50;1.80;;;;;;;35.34;30.70;99700.62;1662533;84;21552;-67
2022/07/04 09:03:22;;;;;;;2.98;1.70;;;;;;;34.81;31.22;99703.20;1638932;85;21111;-67
2022/07/04 09:05:49;;;;;;;3.20;1.67;;;;;;;34.34;32.05;99695.45;1707875;84;21093;-68
2022/07/04 09:08:16;;;;;;;2.75;1.90;;;;;;;33.95;33.13;99700.38;1663268;85;21606;-67
2022/07/04 09:10:42;;;;;;;3.72;1.80;;;;;;;33.59;33.29;99700.77;1707971;84;21547;-67
2022/07/04 09:13:11;;;;;;;2.55;1.92;;;;;;;33.26;35.05;99690.61;1708280;82;22983;-67
2022/07/04 09:15:39;;;;;;;3.50;1.57;;;;;;;33.01;34.60;99692.35;1708342;83;21053;-66
2022/07/04 09:18:21;;;;;;;3.22;1.80;;;;;;;32.72;36.14;99690.33;1713512;82;21065;-66
2022/07/04 09:20:48;;;;;;;4.25;1.80;;;;;;;32.55;37.20;99693.53;1684298;84;21054;-68
2022/07/04 09:23:25;;;;;;;5.20;1.87;;;;;;;32.41;37.83;99687.45;1706568;83;21475;-71
2022/07/04 09:26:14;;;;;;;3.10;1.70;;;;;;;32.29;37.64;99698.45;1705095;83;21018;-70
2022/07/04 09:28:47;;;;;;;5.15;2.17;;;;;;;32.04;38.87;99701.48;1700578;81;21077;-66
2022/07/04 09:31:20;;;;;;;3.67;1.80;;;;;;;31.77;37.83;99692.91;1725286;82;21671;-66
2022/07/04 09:34:03;;;;;;;4.33;2.45;;;;;;;31.54;39.70;99697.70;1725383;82;21063;-68
2022/07/04 09:36:36;;;;;;;3.30;1.77;;;;;;;31.51;40.17;99698.53;1710415;82;21549;-64
2022/07/04 09:39:20;;;;;;;4.12;1.92;;;;;;;31.33;40.91;99690.80;1693051;83;21078;-65
2022/07/04 09:41:57;;;;;;;2.83;1.75;;;;;;;31.20;41.50;99690.29;1714253;84;21043;-66
2022/07/04 09:44:26;;;;;;;3.65;1.65;;;;;;;31.17;41.97;99685.49;1719429;82;21931;-67
2022/07/04 09:46:53;;;;;;;7.65;2.10;;;;;;;31.17;40.68;99689.71;1713465;82;20987;-66
2022/07/04 09:49:20;;;;;;;3.02;1.70;;;;;;;31.11;38.25;99691.36;1710554;82;21094;-66
2022/07/04 09:51:49;;;;;;;5.20;1.82;;;;;;;30.91;39.72;99684.80;1721444;82;21112;-66
2022/07/04 09:54:31;;;;;;;3.08;1.85;;;;;;;30.78;41.77;99681.47;1719758;82;21054;-66
2022/07/04 09:57:00;;;;;;;3.47;1.92;;;;;;;30.75;42.75;99678.84;1704402;82;21042;-68
2022/07/04 09:59:27;;;;;;;2.60;1.87;;;;;;;30.78;39.80;99685.08;1710148;82;21549;-68
2022/07/04 10:02:13;;;;;;;2.25;1.90;;;;;;;30.75;41.66;99691.48;1714088;82;21007;-67
2022/07/04 10:04:55;;;;;;;4.10;1.90;;;;;;;30.74;38.06;99685.70;1721174;82;21561;-66
2022/07/04 10:07:37;;;;;;;2.72;1.70;;;;;;;30.65;38.92;99681.70;1715065;82;21015;-66
2022/07/04 10:10:38;;;;;;;3.02;1.90;;;;;;;30.59;37.77;99672.91;1692467;82;21106;-67
2022/07/04 10:13:09;;;;;;;2.65;1.70;;;;;;;30.54;39.53;99670.52;1709957;82;21110;-66
2022/07/04 10:15:39;;;;;;;3.10;1.60;;;;;;;30.51;40.05;99676.95;1720055;82;21081;-67
2022/07/04 10:18:07;;;;;;;2.08;1.70;;;;;;;30.51;39.81;99679.76;1724982;82;21051;-67
2022/07/04 10:20:35;;;;;;;2.37;1.82;;;;;;;30.53;38.51;99673.14;1720131;82;21561;-67
2022/07/04 10:23:03;;;;;;;4.90;2.00;;;;;;;30.53;38.52;99671.74;1709615;82;21095;-68
2022/07/04 10:25:31;;;;;;;4.45;1.52;;;;;;;30.53;38.12;99673.14;1752425;81;21022;-69
2022/07/04 10:27:58;;;;;;;4.62;1.50;;;;;;;30.50;37.77;99662.73;1719148;82;21050;-67
2022/07/04 10:30:32;;;;;;;3.55;1.90;;;;;;;30.50;38.50;99662.73;1712044;82;21503;-67
2022/07/04 10:33:01;;;;;;;2.87;1.72;;;;;;;30.56;39.36;99670.92;1723905;82;21043;-66
2022/07/04 10:35:54;;;;;;;2.25;1.50;;;;;;;30.61;40.33;99661.45;1724349;82;21050;-66
2022/07/04 10:38:34;;;;;;;3.52;1.95;;;;;;;30.59;37.70;99654.05;1721354;83;21012;-67
2022/07/04 10:41:06;;;;;;;2.60;1.50;;;;;;;30.52;37.84;99658.90;1721817;81;21051;-68
2022/07/04 10:43:43;;;;;;;2.87;1.98;;;;;;;30.48;38.87;99653.89;1719978;81;21566;-68
2022/07/04 10:46:19;;;;;;;3.37;1.60;;;;;;;30.52;37.84;99654.69;1715160;82;21105;-69
2022/07/04 10:49:09;;;;;;;3.60;1.80;;;;;;;30.33;37.82;99655.92;1727153;81;21039;-68
2022/07/04 10:51:48;;;;;;;4.05;1.60;;;;;;;30.28;37.66;99648.53;1712668;81;21656;-67
2022/07/04 10:54:33;;;;;;;3.75;1.90;;;;;;;30.26;38.18;99646.72;1684977;82;21100;-67
2022/07/04 10:57:17;;;;;;;2.87;1.70;;;;;;;30.30;38.91;99646.10;1722833;83;21503;-66
2022/07/04 11:00:01;;;;;;;3.65;2.40;;;;;;;30.39;37.93;99643.68;1728539;81;21050;-66
2022/07/04 11:02:38;;;;;;;2.12;1.62;;;;;;;30.41;37.22;99644.06;1706686;81;21046;-66
2022/07/04 11:05:12;;;;;;;2.85;1.70;;;;;;;30.38;36.98;99644.88;1715891;81;21573;-68
2022/07/04 11:07:44;;;;;;;2.02;1.80;;;;;;;30.41;37.16;99638.45;1718789;81;21006;-66
2022/07/04 11:13:00;;;;;;;2.67;2.05;;;;;;;30.37;35.98;99632.03;1741923;81;21057;-67
2022/07/04 11:15:35;;;;;;;3.62;2.10;;;;;;;30.32;39.88;99629.67;1721069;82;21577;-67
2022/07/04 11:18:16;;;;;;;3.60;1.92;;;;;;;30.39;40.07;99626.23;1720614;81;21647;-66
2022/07/04 11:20:43;;;;;;;4.30;2.20;;;;;;;30.46;41.41;99629.64;1720818;81;21060;-65
2022/07/04 11:23:12;;;;;;;4.12;1.85;;;;;;;30.58;40.85;99636.99;1712521;81;21153;-66
2022/07/04 11:25:43;;;;;;;5.55;1.80;;;;;;;30.66;38.26;99632.75;1716976;81;21070;-66
2022/07/04 11:28:32;;;;;;;5.58;2.45;;;;;;;30.71;38.76;99628.12;1718969;83;21153;-67
2022/07/04 11:31:02;;;;;;;3.75;2.05;;;;;;;30.83;39.10;99622.81;1681475;81;21094;-65
2022/07/04 11:33:31;;;;;;;3.83;2.00;;;;;;;30.91;40.48;99623.58;1717876;81;21085;-67
2022/07/04 11:36:10;;;;;;;3.05;2.00;;;;;;;31.00;40.58;99626.74;1725418;81;21022;-64
2022/07/04 11:39:04;;;;;;;3.22;2.20;;;;;;;31.11;39.95;99621.85;1717916;81;21556;-67
2022/07/04 11:47:23;;;;;;;4.12;2.08;;;;;;;30.61;40.52;99614.30;1723289;81;21068;-66
2022/07/04 11:49:54;;;;;;;3.17;1.85;;;;;;;30.67;39.72;99608.47;1726560;81;21057;-68
2022/07/04 11:52:29;;;;;;;2.80;1.87;;;;;;;30.66;39.00;99604.05;1703022;83;21537;-67
2022/07/04 11:54:56;;;;;;;4.67;2.20;;;;;;;30.71;39.69;99604.23;1712287;81;21086;-66
2022/07/04 11:57:26;;;;;;;5.55;2.42;;;;;;;30.80;38.56;99601.76;1726314;81;21017;-66
2022/07/04 11:59:59;;;;;;;3.12;2.02;;;;;;;30.90;39.37;99592.45;1716805;81;21039;-67
2022/07/04 12:02:27;;;;;;;4.58;2.20;;;;;;;30.97;38.93;99586.21;1724096;81;21454;-67